Accueil
METAR-TAF:

METAR-TAF

Aéroports :

Aéroport de Cherbourg - Maupertus

Cherbourg, France

latitude: 49-39N, longitude: 001-28W, altitude: 138 m

Observation

Le bulletin a été fait il y a 28 minutes, à 01:30 UTC
Vent 3 kt de sud-ouest
Température 14°C
Humidité 94%
Pression 1014 hPa
Visibilité: 8000 m

METAR: LFRC 020130Z AUTO 23003KT 8000 NSC 14/13 Q1014

Heure: 03:58 (01:58 UTC)

Prévision

Le bulletin a été fait il y a 11 heures et 58 minutes, à 14:00 UTC
Prévision valable du 01 à 15 UTC au 01 à 24 UTC
Vent 10 kt de ouest
Visibilité 10 km ou plus
Nuages épars à une hauteur de 2500 ft
Evoluant progressivement
du 01 à 21 UTC au 01 à 24 UTC
Vent 5 kt de direction variable
Probabilité 30% :
Temporairement
du 01 à 21 UTC au 01 à 24 UTC
Nuages fragmentés à une hauteur de 400 ft

TAF: LFRC 011400Z 0115/0124 28010KT 9999 SCT025 BECMG 0121/0124 VRB05KT PROB30 TEMPO 0121/0124 BKN004

Observations et prévisions météorologiques de plus de 4000 aéroports (messages METAR et TAF).

Les stations disponibles sont représentées par des disques jaunes et rouges sur la carte.

Passer la souris dessus pour voir le nom de la station.

Cliquer dessus pour voir les observations et prévisions météorologiques.

Pour changer de carte: cliquez sur les boutons verts avec une croix noire pour zoomer, sur le bouton vert avec un tiret pour effectuer un zoom arrière, ou sur les flèches vertes pour les cartes adjacentes.


METAR-TAF: